Time;durP1;ratioP1;P1;durP2;ratioP2;P2;SDS_P1;SDS_P2;PMS_P1;PMS_P2;Temp;Humidity;BMP_temperature;BMP_pressure;BME280_temperature;BME280_humidity;BME280_pressure;Samples;Min_cycle;Max_cycle;Signal;HPM_P1;HPM_P2
2021/06/21 00:00:14;;;;;;;2.97;2.60;;;22.30;99.90;;;;;;5008240;28;20080;-63
2021/06/21 00:02:40;;;;;;;7.70;3.28;;;22.30;99.90;;;;;;5001153;28;20044;-60
2021/06/21 00:05:07;;;;;;;8.13;3.17;;;22.30;99.90;;;;;;5003224;28;20099;-61
2021/06/21 00:07:33;;;;;;;6.97;2.90;;;22.30;99.90;;;;;;5005313;28;20121;-62
2021/06/21 00:09:59;;;;;;;3.95;2.60;;;22.30;99.90;;;;;;5005673;28;20093;-61
2021/06/21 00:12:24;;;;;;;4.15;2.60;;;22.30;99.90;;;;;;5010628;28;20029;-62
2021/06/21 00:14:50;;;;;;;4.28;2.72;;;22.30;99.90;;;;;;5002663;28;20049;-61
2021/06/21 00:17:16;;;;;;;5.25;3.20;;;22.30;99.90;;;;;;5001824;28;20036;-58
2021/06/21 00:19:45;;;;;;;6.40;2.80;;;22.30;99.90;;;;;;5003219;28;20111;-59
2021/06/21 00:22:14;;;;;;;5.43;3.58;;;22.20;99.90;;;;;;4999562;28;20438;-62
2021/06/21 00:24:39;;;;;;;4.75;3.00;;;22.20;99.90;;;;;;5009111;28;20042;-58
2021/06/21 00:27:05;;;;;;;5.32;3.28;;;22.20;99.90;;;;;;5006520;28;20060;-58
2021/06/21 00:29:32;;;;;;;6.03;2.70;;;22.20;99.90;;;;;;5005374;28;20026;-60
2021/06/21 00:31:58;;;;;;;7.45;3.35;;;22.10;99.90;;;;;;4999937;28;20109;-61
2021/06/21 00:34:23;;;;;;;3.58;2.85;;;22.20;99.90;;;;;;4996904;28;20116;-62
2021/06/21 00:36:49;;;;;;;3.65;3.20;;;22.20;99.90;;;;;;5002328;28;20143;-59
2021/06/21 00:39:14;;;;;;;6.15;2.97;;;22.20;99.90;;;;;;5009431;28;20112;-58
2021/06/21 00:41:40;;;;;;;4.22;3.20;;;22.20;99.90;;;;;;5007556;28;20033;-60
2021/06/21 00:44:07;;;;;;;3.33;2.80;;;22.10;99.90;;;;;;5007743;28;20040;-62
2021/06/21 00:46:33;;;;;;;6.03;2.78;;;22.20;99.90;;;;;;4996335;28;20120;-61
2021/06/21 00:48:58;;;;;;;3.65;2.97;;;22.00;99.90;;;;;;4996957;28;20081;-58
2021/06/21 00:51:24;;;;;;;6.90;3.55;;;22.00;99.90;;;;;;5002331;28;20030;-58
2021/06/21 00:53:50;;;;;;;4.72;3.20;;;21.90;99.90;;;;;;5009103;28;20362;-60
2021/06/21 00:56:16;;;;;;;5.75;3.55;;;21.90;99.90;;;;;;5009895;28;20041;-59
2021/06/21 00:58:42;;;;;;;8.75;4.15;;;21.90;99.90;;;;;;5009886;28;20452;-60
2021/06/21 01:01:08;;;;;;;8.43;3.78;;;21.80;99.90;;;;;;5000780;28;20029;-59
2021/06/21 01:03:33;;;;;;;4.20;3.65;;;21.70;99.90;;;;;;4999118;28;20458;-63
2021/06/21 01:05:59;;;;;;;5.15;3.83;;;21.80;99.90;;;;;;5004088;28;20217;-60
2021/06/21 01:08:25;;;;;;;4.95;4.45;;;21.70;99.90;;;;;;5006361;28;20037;-59
2021/06/21 01:10:55;;;;;;;6.22;3.90;;;21.70;99.90;;;;;;5009903;28;20427;-60
2021/06/21 01:13:51;;;;;;;10.57;4.53;;;21.70;99.90;;;;;;5010246;28;20030;-62
2021/06/21 01:16:41;;;;;;;6.60;3.88;;;21.60;99.90;;;;;;4999755;28;20079;-59
2021/06/21 01:19:29;;;;;;;5.15;4.05;;;21.50;99.90;;;;;;5001348;28;20120;-59
2021/06/21 01:22:41;;;;;;;6.15;4.70;;;21.50;99.90;;;;;;5004812;28;20030;-60
2021/06/21 01:25:22;;;;;;;7.07;4.10;;;21.50;99.90;;;;;;5008542;28;20038;-65
2021/06/21 01:28:15;;;;;;;9.75;4.32;;;21.50;99.90;;;;;;5005940;28;20053;-61
2021/06/21 01:31:02;;;;;;;8.30;4.80;;;21.50;99.90;;;;;;5003260;28;20103;-61
2021/06/21 01:33:28;;;;;;;11.20;5.47;;;21.50;99.90;;;;;;5001502;28;20038;-61
2021/06/21 01:36:00;;;;;;;9.82;5.60;;;21.40;99.90;;;;;;5003184;28;20045;-58
2021/06/21 01:38:30;;;;;;;6.82;4.90;;;21.40;99.90;;;;;;5007888;28;20030;-59
2021/06/21 01:41:01;;;;;;;13.23;6.40;;;21.30;99.90;;;;;;5009968;28;20133;-61
2021/06/21 01:43:38;;;;;;;11.88;5.88;;;21.20;99.90;;;;;;5009845;28;20030;-62
2021/06/21 01:46:08;;;;;;;8.63;5.13;;;21.20;99.90;;;;;;5003473;28;20037;-63
2021/06/21 01:48:37;;;;;;;12.65;6.03;;;21.20;99.90;;;;;;5002319;28;20022;-61
2021/06/21 01:51:04;;;;;;;8.15;5.95;;;21.10;99.90;;;;;;5003069;28;20557;-63
2021/06/21 01:53:33;;;;;;;9.50;6.32;;;21.20;99.90;;;;;;5010551;28;20057;-63
2021/06/21 01:56:02;;;;;;;7.43;5.43;;;21.10;99.90;;;;;;5017329;28;20483;-59
2021/06/21 01:58:30;;;;;;;8.10;5.82;;;21.10;99.90;;;;;;5012785;28;20052;-64
2021/06/21 02:00:57;;;;;;;9.15;6.63;;;21.20;99.90;;;;;;5006774;28;20112;-56
2021/06/21 02:03:23;;;;;;;12.10;7.38;;;21.10;99.90;;;;;;5004076;28;20045;-59
2021/06/21 02:05:50;;;;;;;15.20;9.43;;;21.10;99.90;;;;;;5001165;28;20021;-61
2021/06/21 02:08:19;;;;;;;12.98;8.40;;;21.00;99.90;;;;;;5011569;28;20034;-60
2021/06/21 02:10:47;;;;;;;12.35;8.70;;;21.00;99.90;;;;;;5012407;28;20025;-58
2021/06/21 02:13:13;;;;;;;13.50;8.18;;;21.00;99.90;;;;;;5009779;28;20403;-62
2021/06/21 02:15:40;;;;;;;14.05;9.52;;;20.90;99.90;;;;;;5008324;28;20029;-59
2021/06/21 02:18:08;;;;;;;19.52;9.27;;;20.80;99.90;;;;;;5004481;28;20040;-59
2021/06/21 02:20:34;;;;;;;15.38;10.73;;;20.80;99.90;;;;;;5004158;28;20048;-60
2021/06/21 02:23:00;;;;;;;12.38;9.27;;;20.80;99.90;;;;;;5009252;28;20065;-59
2021/06/21 02:25:26;;;;;;;15.98;10.40;;;20.80;99.90;;;;;;5013228;28;20065;-56
2021/06/21 02:27:52;;;;;;;14.85;9.60;;;20.70;99.90;;;;;;5011774;28;20784;-58
2021/06/21 02:30:19;;;;;;;16.25;9.60;;;20.70;99.90;;;;;;5010008;28;20492;-59
2021/06/21 02:32:47;;;;;;;13.57;9.60;;;20.70;99.90;;;;;;5002792;28;20506;-57
2021/06/21 02:35:15;;;;;;;14.70;9.55;;;20.60;99.90;;;;;;5003895;28;20041;-59
2021/06/21 02:37:41;;;;;;;13.27;9.70;;;20.60;99.90;;;;;;5007251;28;20045;-60
2021/06/21 02:40:09;;;;;;;16.10;10.25;;;20.50;99.90;;;;;;5010674;28;20038;-56
2021/06/21 02:42:35;;;;;;;20.20;10.95;;;20.50;99.90;;;;;;5013043;28;20430;-57
2021/06/21 02:45:00;;;;;;;17.92;11.15;;;20.50;99.90;;;;;;5010348;28;20037;-57
2021/06/21 02:47:26;;;;;;;19.48;11.57;;;20.50;99.90;;;;;;5003591;28;20068;-60
2021/06/21 02:49:52;;;;;;;19.27;11.18;;;20.50;99.90;;;;;;5002569;28;20038;-59
2021/06/21 02:52:55;;;;;;;15.70;10.75;;;20.50;99.90;;;;;;5006975;28;20030;-59
2021/06/21 02:55:57;;;;;;;16.08;10.73;;;20.40;99.90;;;;;;5011661;28;20411;-59
2021/06/21 02:58:26;;;;;;;21.05;10.95;;;20.40;99.90;;;;;;5000007;28;20052;-61
2021/06/21 03:00:54;;;;;;;15.18;10.35;;;20.30;99.90;;;;;;5005453;28;20092;-58
2021/06/21 03:03:27;;;;;;;28.00;12.27;;;20.30;99.90;;;;;;5002108;28;20525;-62
2021/06/21 03:05:55;;;;;;;13.85;11.43;;;20.20;99.90;;;;;;5002991;28;20088;-58
2021/06/21 03:08:21;;;;;;;19.58;12.85;;;20.20;99.90;;;;;;5010122;28;20080;-56
2021/06/21 03:10:49;;;;;;;19.20;12.73;;;20.20;99.90;;;;;;5011054;28;20026;-60
2021/06/21 03:13:18;;;;;;;16.88;12.20;;;20.10;99.90;;;;;;5011922;28;20030;-59
2021/06/21 03:15:44;;;;;;;14.77;11.18;;;20.10;99.90;;;;;;5005817;28;20488;-58
2021/06/21 03:18:13;;;;;;;17.70;11.95;;;20.10;99.90;;;;;;5003535;28;20056;-58
2021/06/21 03:20:38;;;;;;;15.38;11.60;;;20.10;99.90;;;;;;5004533;28;20117;-60
2021/06/21 03:23:05;;;;;;;19.92;12.52;;;20.10;99.90;;;;;;5008284;28;20113;-60
2021/06/21 03:25:36;;;;;;;18.92;11.52;;;20.10;99.90;;;;;;5010824;28;20064;-60
2021/06/21 03:28:12;;;;;;;21.00;13.48;;;20.00;99.90;;;;;;5011691;28;20068;-60
2021/06/21 03:30:42;;;;;;;24.13;13.45;;;20.00;99.90;;;;;;5006456;28;20025;-63
2021/06/21 03:33:08;;;;;;;23.52;15.15;;;20.00;99.90;;;;;;5002468;28;20028;-59
2021/06/21 03:35:33;;;;;;;22.42;17.17;;;20.00;99.90;;;;;;5002711;28;20025;-60
2021/06/21 03:38:21;;;;;;;31.15;18.83;;;19.80;99.90;;;;;;5007532;28;20420;-60
2021/06/21 03:40:48;;;;;;;26.02;17.35;;;19.90;99.90;;;;;;5011529;28;20199;-60
2021/06/21 03:43:16;;;;;;;24.00;16.08;;;19.80;99.90;;;;;;5011093;28;20034;-60
2021/06/21 03:45:42;;;;;;;23.98;17.05;;;19.70;99.90;;;;;;5007776;28;20038;-60
2021/06/21 03:48:08;;;;;;;27.60;18.88;;;19.80;99.90;;;;;;5002677;28;20034;-63
2021/06/21 03:50:34;;;;;;;26.77;20.40;;;19.70;99.90;;;;;;5003576;28;20026;-58
2021/06/21 03:53:00;;;;;;;27.63;17.88;;;19.70;99.90;;;;;;5007096;28;20144;-58
2021/06/21 03:55:25;;;;;;;31.23;19.88;;;19.70;99.90;;;;;;5007949;28;20448;-59
2021/06/21 03:57:55;;;;;;;27.90;20.52;;;19.70;99.90;;;;;;5010514;28;20389;-61
2021/06/21 04:00:23;;;;;;;28.55;21.50;;;19.70;99.90;;;;;;5006505;28;20030;-61
2021/06/21 04:02:49;;;;;;;34.40;23.67;;;19.60;99.90;;;;;;5001791;28;20109;-59
2021/06/21 04:05:15;;;;;;;30.65;21.00;;;19.60;99.90;;;;;;5002134;28;20026;-59
2021/06/21 04:07:42;;;;;;;30.58;21.83;;;19.70;99.90;;;;;;5007911;28;20038;-62
2021/06/21 04:10:10;;;;;;;44.17;25.70;;;19.70;99.90;;;;;;5010564;28;20473;-62
2021/06/21 04:12:37;;;;;;;32.20;20.00;;;19.70;99.90;;;;;;5010350;28;20145;-63
2021/06/21 04:15:08;;;;;;;34.33;22.52;;;19.70;99.90;;;;;;5008399;28;20487;-61
2021/06/21 04:17:35;;;;;;;34.10;22.67;;;19.70;99.90;;;;;;5003173;28;20459;-60
2021/06/21 04:20:00;;;;;;;34.10;24.92;;;19.70;99.90;;;;;;4998344;28;20492;-61
2021/06/21 04:22:27;;;;;;;31.67;23.02;;;19.80;99.90;;;;;;5003561;28;20025;-62
2021/06/21 04:24:52;;;;;;;36.47;24.73;;;19.80;99.90;;;;;;5009741;28;20025;-60
2021/06/21 04:27:18;;;;;;;37.72;26.08;;;19.70;99.90;;;;;;5008641;28;20034;-62
2021/06/21 04:29:43;;;;;;;39.05;25.60;;;19.70;99.90;;;;;;5007124;28;20032;-60
2021/06/21 04:32:09;;;;;;;34.90;21.95;;;19.70;99.90;;;;;;5000811;28;20116;-62
2021/06/21 04:34:35;;;;;;;35.70;23.52;;;19.70;99.90;;;;;;5002643;28;20029;-60
2021/06/21 04:37:00;;;;;;;36.65;23.83;;;19.80;99.90;;;;;;5002681;28;20026;-58
2021/06/21 04:39:26;;;;;;;36.30;22.50;;;19.80;99.90;;;;;;5009785;28;20042;-60
2021/06/21 04:41:51;;;;;;;32.75;23.58;;;19.80;99.90;;;;;;5009057;28;20441;-59
2021/06/21 04:44:17;;;;;;;34.47;23.95;;;19.80;99.90;;;;;;5007247;28;20559;-58
2021/06/21 04:46:43;;;;;;;30.52;22.50;;;19.80;99.90;;;;;;5001968;28;20034;-58
2021/06/21 04:49:12;;;;;;;31.42;24.95;;;19.90;99.90;;;;;;5001643;28;20061;-62
2021/06/21 04:51:43;;;;;;;33.38;25.08;;;19.90;99.90;;;;;;5000683;28;20022;-62
2021/06/21 04:54:09;;;;;;;35.58;24.63;;;20.00;99.90;;;;;;4999645;28;20037;-65
2021/06/21 04:56:35;;;;;;;39.67;25.10;;;20.10;99.90;;;;;;5001506;28;20511;-65
2021/06/21 04:59:03;;;;;;;36.15;24.98;;;20.00;99.90;;;;;;5002191;28;20046;-64
2021/06/21 05:01:28;;;;;;;33.95;25.48;;;20.00;99.90;;;;;;4999558;28;20156;-65
2021/06/21 05:03:54;;;;;;;30.98;25.25;;;20.10;99.90;;;;;;5000199;28;20108;-64
2021/06/21 05:06:19;;;;;;;34.15;27.17;;;20.10;99.90;;;;;;4998452;28;20026;-65
2021/06/21 05:08:46;;;;;;;32.35;23.52;;;20.10;99.90;;;;;;5049690;23;20500;-62
2021/06/21 05:11:12;;;;;;;32.95;26.42;;;20.00;99.90;;;;;;5037573;28;20028;-63
2021/06/21 05:13:37;;;;;;;34.28;26.30;;;20.00;99.90;;;;;;5039045;28;20033;-63
2021/06/21 05:16:04;;;;;;;32.35;26.92;;;20.00;99.90;;;;;;5035017;28;20108;-63
2021/06/21 05:18:29;;;;;;;33.53;26.05;;;20.00;99.90;;;;;;5024509;28;20025;-63
2021/06/21 05:20:55;;;;;;;39.20;23.63;;;20.00;99.90;;;;;;5019178;28;20441;-63
2021/06/21 05:23:20;;;;;;;36.13;29.38;;;20.00;99.90;;;;;;5018080;28;20074;-63
2021/06/21 05:25:46;;;;;;;36.60;25.98;;;20.10;99.90;;;;;;5024196;28;20034;-63
2021/06/21 05:28:11;;;;;;;34.20;22.60;;;20.10;99.90;;;;;;5022537;28;20104;-63
2021/06/21 05:30:37;;;;;;;29.25;19.85;;;20.20;99.90;;;;;;5025772;28;20103;-63
2021/06/21 05:33:03;;;;;;;27.13;20.33;;;20.30;99.90;;;;;;5021027;28;20049;-63
2021/06/21 05:35:29;;;;;;;21.27;17.23;;;20.30;99.90;;;;;;5021154;28;20113;-63
2021/06/21 05:37:54;;;;;;;17.63;13.57;;;20.30;99.90;;;;;;5027044;28;20494;-63
2021/06/21 05:40:20;;;;;;;19.08;12.85;;;20.40;99.90;;;;;;5030297;28;20025;-63
2021/06/21 05:42:46;;;;;;;15.40;10.75;;;20.40;99.90;;;;;;5019703;28;20029;-63
2021/06/21 05:45:12;;;;;;;16.15;10.85;;;20.40;99.90;;;;;;5032512;28;20123;-62
2021/06/21 05:47:38;;;;;;;17.55;8.00;;;20.40;99.90;;;;;;5018727;28;20023;-63
2021/06/21 05:50:04;;;;;;;16.60;7.38;;;20.50;99.90;;;;;;5025093;28;20025;-62
2021/06/21 05:52:30;;;;;;;9.25;5.63;;;20.50;99.90;;;;;;5022634;28;20022;-63
2021/06/21 05:54:59;;;;;;;10.48;5.28;;;20.60;99.90;;;;;;5016259;28;20456;-63
2021/06/21 05:57:26;;;;;;;8.45;4.68;;;20.60;99.90;;;;;;5015908;28;20032;-63
2021/06/21 05:59:52;;;;;;;10.85;4.55;;;20.60;99.90;;;;;;5016868;28;20059;-63
2021/06/21 06:02:18;;;;;;;15.98;4.72;;;20.60;99.90;;;;;;5020943;28;20021;-63
2021/06/21 06:04:44;;;;;;;13.63;3.80;;;20.60;99.90;;;;;;5022339;28;20453;-63
2021/06/21 06:07:09;;;;;;;9.18;3.80;;;20.60;99.90;;;;;;5020812;28;20113;-62
2021/06/21 06:09:35;;;;;;;23.95;3.72;;;20.70;99.90;;;;;;5024060;28;20041;-63
2021/06/21 06:12:01;;;;;;;15.80;3.78;;;20.80;99.90;;;;;;5013414;28;20481;-63
2021/06/21 06:14:26;;;;;;;11.38;3.15;;;20.80;99.90;;;;;;5019562;28;20026;-62
2021/06/21 06:16:54;;;;;;;16.58;3.05;;;20.80;99.90;;;;;;5024376;28;20033;-63
2021/06/21 06:19:20;;;;;;;16.42;3.20;;;20.80;99.90;;;;;;5021579;28;20033;-63
2021/06/21 06:21:46;;;;;;;19.88;3.63;;;20.80;99.90;;;;;;5025070;28;20067;-63
2021/06/21 06:24:13;;;;;;;9.38;2.70;;;20.80;99.90;;;;;;5026212;28;20030;-63
2021/06/21 06:26:43;;;;;;;11.88;2.85;;;20.80;99.90;;;;;;5015961;28;20053;-63
2021/06/21 06:29:15;;;;;;;11.55;2.40;;;20.90;99.90;;;;;;5022213;28;20484;-63
2021/06/21 06:31:44;;;;;;;9.82;2.55;;;20.90;99.90;;;;;;5023119;28;20034;-63
2021/06/21 06:34:11;;;;;;;14.35;3.15;;;20.80;99.90;;;;;;5020744;28;20029;-62
2021/06/21 06:36:36;;;;;;;8.48;2.42;;;20.80;99.90;;;;;;5022944;28;20071;-63
2021/06/21 06:39:04;;;;;;;13.32;2.58;;;20.90;99.90;;;;;;5024742;28;20149;-63
2021/06/21 06:41:30;;;;;;;8.25;2.47;;;20.90;99.90;;;;;;5012588;28;20033;-63
2021/06/21 06:43:55;;;;;;;10.27;2.00;;;20.90;99.90;;;;;;5025902;28;20033;-63
2021/06/21 06:46:21;;;;;;;9.70;2.78;;;20.90;99.90;;;;;;5023799;28;20038;-63
2021/06/21 06:48:47;;;;;;;13.25;2.83;;;20.90;99.90;;;;;;5019587;28;20048;-63
2021/06/21 06:51:12;;;;;;;9.63;2.25;;;20.90;99.90;;;;;;5022492;28;20060;-62
2021/06/21 06:53:54;;;;;;;11.95;2.55;;;21.00;99.90;;;;;;5023226;28;20018;-62
2021/06/21 06:59:04;;;;;;;9.82;2.90;;;20.90;99.90;;;;;;5025069;28;20457;-63
2021/06/21 07:01:30;;;;;;;12.05;2.47;;;21.00;99.90;;;;;;5015651;28;20116;-63
2021/06/21 07:03:56;;;;;;;9.90;2.33;;;21.00;99.90;;;;;;5019939;28;20384;-63
2021/06/21 07:06:21;;;;;;;8.20;2.90;;;21.10;99.90;;;;;;5017203;28;20509;-63
2021/06/21 07:08:47;;;;;;;14.65;2.92;;;21.20;99.90;;;;;;5025355;28;20067;-63
2021/06/21 07:11:16;;;;;;;12.55;4.57;;;21.30;99.90;;;;;;5024908;28;20018;-63
2021/06/21 07:13:43;;;;;;;11.57;2.78;;;21.30;99.90;;;;;;5026633;28;20659;-63
2021/06/21 07:16:08;;;;;;;5.55;2.10;;;21.30;99.90;;;;;;5017964;28;20037;-63
2021/06/21 07:18:34;;;;;;;15.48;3.42;;;21.40;99.90;;;;;;5021786;28;20376;-63
2021/06/21 07:21:00;;;;;;;8.65;2.42;;;21.50;99.90;;;;;;5018998;28;20240;-63
2021/06/21 07:23:25;;;;;;;11.63;2.67;;;21.50;99.90;;;;;;5026372;28;20117;-63
2021/06/21 07:25:51;;;;;;;12.48;3.30;;;21.50;99.90;;;;;;5024566;28;20775;-63
2021/06/21 07:28:17;;;;;;;10.52;2.50;;;21.60;99.90;;;;;;5014936;28;20037;-63
2021/06/21 07:30:43;;;;;;;11.38;2.53;;;21.70;99.90;;;;;;5015956;28;20029;-63
2021/06/21 07:33:10;;;;;;;10.20;2.47;;;21.80;99.90;;;;;;5020218;28;20043;-63
2021/06/21 07:35:37;;;;;;;10.57;3.08;;;22.00;99.90;;;;;;5019186;28;20120;-63
2021/06/21 07:38:02;;;;;;;6.10;2.25;;;22.10;99.90;;;;;;5024963;28;20029;-63
2021/06/21 07:40:28;;;;;;;8.73;2.20;;;22.20;99.90;;;;;;5024151;28;20404;-63
2021/06/21 07:42:54;;;;;;;5.45;2.15;;;22.30;99.90;;;;;;5014891;28;20026;-63
2021/06/21 07:45:19;;;;;;;9.23;2.25;;;22.40;99.90;;;;;;5017517;28;20391;-63
2021/06/21 07:47:45;;;;;;;4.22;1.98;;;22.40;99.90;;;;;;5021672;28;20026;-63
2021/06/21 07:50:11;;;;;;;6.25;2.30;;;22.40;99.90;;;;;;5016512;28;20028;-63
2021/06/21 07:52:37;;;;;;;6.60;2.20;;;22.20;99.90;;;;;;5019611;28;20025;-63
2021/06/21 07:55:03;;;;;;;3.83;2.00;;;22.00;99.90;;;;;;5021504;28;20017;-63
2021/06/21 07:57:28;;;;;;;9.60;2.78;;;21.80;99.90;;;;;;5018308;28;20021;-63
2021/06/21 07:59:55;;;;;;;8.07;4.40;;;21.70;99.90;;;;;;5015232;28;20506;-63
2021/06/21 08:02:21;;;;;;;6.30;4.95;;;21.40;99.90;;;;;;5022127;28;20034;-63
2021/06/21 08:04:47;;;;;;;8.30;5.13;;;21.40;99.90;;;;;;5021037;28;20502;-64
2021/06/21 08:07:16;;;;;;;7.50;4.90;;;21.30;99.90;;;;;;5021886;28;20108;-64
2021/06/21 08:09:42;;;;;;;12.55;9.43;;;21.50;99.90;;;;;;5022573;28;20155;-64
2021/06/21 08:12:08;;;;;;;16.88;10.95;;;21.50;99.90;;;;;;5029668;28;20108;-63
2021/06/21 08:14:33;;;;;;;24.73;13.23;;;21.40;99.90;;;;;;5026383;28;20028;-63
2021/06/21 08:16:59;;;;;;;24.77;15.43;;;21.40;99.90;;;;;;5015465;28;20029;-63
2021/06/21 08:19:24;;;;;;;23.92;16.38;;;21.30;99.90;;;;;;5023722;28;20025;-63
2021/06/21 08:21:50;;;;;;;22.90;14.95;;;21.10;99.90;;;;;;5011023;28;20056;-63
2021/06/21 08:24:16;;;;;;;24.02;18.88;;;21.10;99.90;;;;;;5028917;28;20022;-61
2021/06/21 08:26:41;;;;;;;21.08;16.80;;;21.10;99.90;;;;;;5023550;28;20183;-64
2021/06/21 08:29:08;;;;;;;26.23;20.38;;;21.20;99.90;;;;;;5023318;28;20502;-64
2021/06/21 08:31:33;;;;;;;24.90;19.42;;;21.10;99.90;;;;;;5022963;28;20029;-62
2021/06/21 08:33:59;;;;;;;24.35;19.50;;;20.70;99.90;;;;;;5020848;28;20029;-64
2021/06/21 08:36:24;;;;;;;25.88;19.58;;;20.60;99.90;;;;;;5014067;28;20774;-64
2021/06/21 08:38:50;;;;;;;22.33;17.42;;;20.60;99.90;;;;;;5015888;28;20025;-64
2021/06/21 08:41:16;;;;;;;22.77;17.15;;;20.60;99.90;;;;;;5021218;28;20022;-63
2021/06/21 08:43:43;;;;;;;22.73;18.85;;;20.70;99.90;;;;;;5021436;28;20045;-64
2021/06/21 08:46:09;;;;;;;24.60;19.25;;;20.40;99.90;;;;;;5020380;28;20032;-64
2021/06/21 08:48:40;;;;;;;32.38;19.83;;;20.60;99.90;;;;;;5027031;28;20025;-63
2021/06/21 08:51:06;;;;;;;28.17;19.15;;;20.40;99.90;;;;;;5010937;28;20045;-64
2021/06/21 08:53:31;;;;;;;24.08;16.77;;;20.50;99.90;;;;;;5014611;28;20113;-64
2021/06/21 08:55:57;;;;;;;23.23;17.65;;;20.60;99.90;;;;;;5019254;28;20235;-64
2021/06/21 08:58:23;;;;;;;23.67;16.48;;;20.30;99.90;;;;;;5021494;28;20030;-63
2021/06/21 09:00:49;;;;;;;19.15;13.55;;;20.00;99.90;;;;;;5022676;28;20057;-63
2021/06/21 09:03:16;;;;;;;21.35;14.80;;;19.70;99.90;;;;;;5025196;28;20038;-63
2021/06/21 09:05:41;;;;;;;20.98;13.70;;;19.00;99.90;;;;;;5015061;28;20084;-63
2021/06/21 09:08:08;;;;;;;14.93;11.82;;;18.80;99.90;;;;;;5018041;28;20498;-63
2021/06/21 09:10:39;;;;;;;13.88;10.77;;;18.80;99.90;;;;;;5022114;28;20033;-63
2021/06/21 09:13:12;;;;;;;14.82;10.05;;;18.30;99.90;;;;;;5023758;28;20033;-62
2021/06/21 09:15:51;;;;;;;14.75;9.00;;;18.30;99.90;;;;;;5025757;28;20049;-63
2021/06/21 09:18:35;;;;;;;12.70;8.70;;;18.00;99.90;;;;;;5031259;28;20065;-62
2021/06/21 09:21:29;;;;;;;15.38;8.60;;;17.90;99.90;;;;;;5014351;28;20107;-63
2021/06/21 09:23:57;;;;;;;12.38;7.30;;;17.90;99.90;;;;;;5017066;28;20040;-63
2021/06/21 09:26:28;;;;;;;11.38;6.85;;;17.80;99.90;;;;;;5024507;28;20037;-64
2021/06/21 09:28:54;;;;;;;11.95;5.15;;;17.90;99.90;;;;;;5023984;28;20557;-64
2021/06/21 09:31:22;;;;;;;8.45;3.70;;;18.10;99.90;;;;;;5025302;28;20037;-62
2021/06/21 09:33:48;;;;;;;9.40;4.15;;;17.90;99.90;;;;;;5025267;28;20022;-63
2021/06/21 09:36:32;;;;;;;7.32;3.78;;;17.80;99.90;;;;;;5013436;28;20030;-63
2021/06/21 09:39:19;;;;;;;6.28;3.78;;;17.90;99.90;;;;;;5015480;28;20026;-63
2021/06/21 09:42:11;;;;;;;5.95;3.15;;;17.90;99.90;;;;;;5022785;28;20060;-63
2021/06/21 09:44:43;;;;;;;4.13;1.92;;;18.00;99.90;;;;;;5026469;28;20080;-62
2021/06/21 09:47:34;;;;;;;8.63;3.05;;;18.40;99.90;;;;;;5026742;28;20040;-62
2021/06/21 09:50:02;;;;;;;3.13;2.05;;;18.50;99.90;;;;;;5015872;28;20036;-64
2021/06/21 09:52:39;;;;;;;4.18;1.88;;;18.80;99.90;;;;;;5028239;28;20064;-63
2021/06/21 09:55:16;;;;;;;2.28;1.90;;;19.00;99.90;;;;;;5020415;28;20078;-63
2021/06/21 09:57:43;;;;;;;8.57;1.50;;;19.00;99.90;;;;;;5025548;28;20368;-63
2021/06/21 10:00:11;;;;;;;4.30;1.30;;;19.00;99.90;;;;;;5025570;28;20057;-62
2021/06/21 10:02:37;;;;;;;3.17;1.10;;;18.90;99.90;;;;;;5026282;28;20450;-62
2021/06/21 10:05:05;;;;;;;1.13;0.80;;;19.00;99.90;;;;;;5022171;28;20083;-62
2021/06/21 10:07:35;;;;;;;1.33;1.05;;;18.90;99.90;;;;;;5019100;28;20551;-62
2021/06/21 10:10:07;;;;;;;2.45;0.65;;;18.40;99.90;;;;;;5020135;28;20061;-63
2021/06/21 10:12:33;;;;;;;2.22;0.88;;;18.40;99.90;;;;;;5025061;28;20025;-63
2021/06/21 10:14:59;;;;;;;1.30;0.85;;;18.40;99.90;;;;;;5023272;28;20026;-63
2021/06/21 10:17:26;;;;;;;1.63;1.13;;;18.80;99.90;;;;;;5019308;28;20504;-62
2021/06/21 10:19:53;;;;;;;2.20;0.80;;;19.00;99.90;;;;;;5019174;28;20029;-63
2021/06/21 10:22:21;;;;;;;0.90;0.80;;;19.00;99.90;;;;;;5018897;28;20436;-61
2021/06/21 10:24:50;;;;;;;1.35;0.70;;;19.00;99.90;;;;;;5021957;28;20017;-63
2021/06/21 10:27:19;;;;;;;0.70;0.60;;;19.00;99.90;;;;;;5020881;28;20040;-64
2021/06/21 10:29:45;;;;;;;0.90;0.40;;;19.00;99.90;;;;;;5026244;28;20496;-64
2021/06/21 10:32:11;;;;;;;1.95;0.60;;;18.70;99.90;;;;;;5025838;28;20384;-63
2021/06/21 10:34:38;;;;;;;1.13;0.50;;;18.70;99.90;;;;;;5023722;28;20033;-62
2021/06/21 10:37:12;;;;;;;2.80;0.60;;;18.70;99.90;;;;;;5014684;28;20454;-64
2021/06/21 10:39:54;;;;;;;1.17;0.50;;;18.60;99.90;;;;;;5018152;28;20058;-62
2021/06/21 10:42:27;;;;;;;0.47;0.40;;;18.50;99.90;;;;;;5024690;28;20038;-63
2021/06/21 10:44:55;;;;;;;0.88;0.70;;;18.60;99.90;;;;;;5023427;28;20396;-64
2021/06/21 10:47:27;;;;;;;0.75;0.45;;;18.70;99.90;;;;;;5027132;28;20029;-63
2021/06/21 10:50:05;;;;;;;3.05;0.50;;;18.90;99.90;;;;;;5016701;28;20026;-63
2021/06/21 10:52:39;;;;;;;1.65;0.73;;;19.00;99.90;;;;;;5027201;28;20021;-63
2021/06/21 10:55:24;;;;;;;1.30;0.80;;;19.00;99.90;;;;;;5018088;28;20128;-62
2021/06/21 10:57:51;;;;;;;4.10;0.93;;;18.80;99.90;;;;;;5020421;28;20029;-63
2021/06/21 11:00:20;;;;;;;1.83;1.20;;;18.80;99.90;;;;;;5022330;28;20029;-63
2021/06/21 11:02:46;;;;;;;1.90;1.10;;;18.70;99.90;;;;;;5029561;28;20022;-63
2021/06/21 11:05:14;;;;;;;1.48;1.05;;;18.70;99.90;;;;;;5017016;28;20083;-64
2021/06/21 11:07:59;;;;;;;2.25;1.00;;;18.70;99.90;;;;;;5015754;28;20056;-61
2021/06/21 11:10:29;;;;;;;3.70;1.15;;;18.50;99.90;;;;;;5035855;23;20419;-64
2021/06/21 11:12:55;;;;;;;1.25;0.90;;;18.70;99.90;;;;;;5006736;28;20034;-63
2021/06/21 11:15:20;;;;;;;1.15;0.95;;;18.80;99.90;;;;;;5012954;28;20026;-62
2021/06/21 11:17:54;;;;;;;11.95;1.73;;;18.70;99.90;;;;;;4992637;28;20064;-63
2021/06/21 11:20:28;;;;;;;1.17;1.07;;;18.70;99.90;;;;;;5010941;28;20392;-63
2021/06/21 11:22:59;;;;;;;;;;;18.60;99.90;;;;;;5011897;28;20257;-63
2021/06/21 11:25:30;;;;;;;3.55;1.00;;;18.80;99.90;;;;;;5004742;28;19935;-64
2021/06/21 11:27:56;;;;;;;2.58;0.90;;;19.00;99.90;;;;;;5003149;28;20052;-63
2021/06/21 11:30:36;;;;;;;0.82;0.82;;;19.10;99.90;;;;;;5005585;28;20033;-64
2021/06/21 11:33:11;;;;;;;0.73;0.70;;;19.50;99.90;;;;;;5007312;28;20037;-64
2021/06/21 11:36:04;;;;;;;3.58;1.27;;;19.70;99.90;;;;;;5006869;28;20049;-65
2021/06/21 11:38:34;;;;;;;1.27;1.00;;;19.70;99.90;;;;;;5011067;28;20026;-64
2021/06/21 11:41:25;;;;;;;1.20;0.85;;;20.00;99.90;;;;;;5004142;28;20104;-63
2021/06/21 11:43:59;;;;;;;0.60;0.60;;;20.10;99.90;;;;;;5002442;28;20021;-64
2021/06/21 11:46:44;;;;;;;0.90;0.90;;;20.00;99.90;;;;;;5003924;28;20121;-64
2021/06/21 11:49:11;;;;;;;1.30;0.80;;;19.90;99.90;;;;;;5008998;28;20032;-64
2021/06/21 11:51:37;;;;;;;0.70;0.70;;;19.60;99.90;;;;;;5010896;28;20018;-64
2021/06/21 11:54:03;;;;;;;0.63;0.63;;;19.70;99.90;;;;;;5011186;28;20079;-65
2021/06/21 11:56:30;;;;;;;3.30;0.60;;;19.60;99.90;;;;;;5001938;28;20026;-64
2021/06/21 11:58:57;;;;;;;0.60;0.60;;;19.50;99.90;;;;;;5003585;28;20029;-64
2021/06/21 12:01:26;;;;;;;0.80;0.50;;;19.50;99.90;;;;;;5001968;28;20626;-63
2021/06/21 12:03:59;;;;;;;0.60;0.60;;;19.30;99.90;;;;;;5009158;28;20080;-64
2021/06/21 12:06:26;;;;;;;0.63;0.60;;;19.30;99.90;;;;;;5009671;28;20033;-64
2021/06/21 12:08:52;;;;;;;0.95;0.45;;;19.30;99.90;;;;;;5009668;28;20755;-63
2021/06/21 12:11:26;;;;;;;0.65;0.52;;;19.20;99.90;;;;;;5001721;28;20036;-63
2021/06/21 12:13:56;;;;;;;;;;;19.10;99.90;;;;;;5002472;28;20030;-64
2021/06/21 12:16:22;;;;;;;0.77;0.55;;;19.00;99.90;;;;;;5000282;28;19909;-64
2021/06/21 12:18:56;;;;;;;2.50;0.52;;;19.00;99.90;;;;;;5009801;28;20038;-64
2021/06/21 12:21:34;;;;;;;0.40;0.40;;;18.90;99.90;;;;;;5008947;28;20660;-63
2021/06/21 12:24:24;;;;;;;0.60;0.60;;;18.90;99.90;;;;;;5008524;28;20066;-64
2021/06/21 12:26:54;;;;;;;0.82;0.82;;;18.70;99.90;;;;;;5003584;28;20088;-64
2021/06/21 12:29:31;;;;;;;1.15;1.02;;;18.70;99.90;;;;;;5002596;28;20018;-64
2021/06/21 12:31:59;;;;;;;2.13;0.90;;;18.70;99.90;;;;;;5004020;28;20396;-61
2021/06/21 12:34:43;;;;;;;0.90;0.90;;;18.60;99.90;;;;;;5010398;28;20026;-64
2021/06/21 12:37:21;;;;;;;1.10;0.93;;;18.50;99.90;;;;;;5009478;28;20026;-65
2021/06/21 12:39:49;;;;;;;1.27;0.80;;;18.50;99.90;;;;;;5008065;28;20273;-64
2021/06/21 12:42:16;;;;;;;1.10;1.00;;;18.50;99.90;;;;;;5000480;28;20083;-64
2021/06/21 12:44:43;;;;;;;1.83;1.63;;;18.40;99.90;;;;;;5001622;28;20396;-62
2021/06/21 12:47:22;;;;;;;3.47;1.98;;;18.40;99.90;;;;;;5004554;28;20045;-64
2021/06/21 12:49:49;;;;;;;1.42;1.33;;;18.50;99.90;;;;;;5004917;28;20080;-64